Time;durP1;ratioP1;P1;durP2;ratioP2;P2;SDS_P1;SDS_P2;PMS_P1;PMS_P2;Temp;Humidity;BMP_temperature;BMP_pressure;BME280_temperature;BME280_humidity;BME280_pressure;Samples;Min_cycle;Max_cycle;Signal;HPM_P1;HPM_P2
2021/10/02 00:36:34;;;;;;;18.58;4.68;;;;;;;13.55;85.30;101054.19;5116027;27;20860;-65
2021/10/02 00:44:40;;;;;;;12.00;5.05;;;;;;;13.52;85.17;101053.69;5103504;28;20423;-67
2021/10/02 00:47:09;;;;;;;15.60;5.22;;;;;;;13.55;85.47;101053.34;5108840;28;20036;-66
2021/10/02 00:49:38;;;;;;;11.68;4.78;;;;;;;13.56;85.67;101049.69;5080338;28;20039;-66
2021/10/02 00:52:08;;;;;;;11.93;4.78;;;;;;;13.54;85.50;101049.03;5100115;28;20072;-66
2021/10/02 00:54:35;;;;;;;10.95;5.07;;;;;;;13.54;85.79;101057.03;5092810;28;20134;-66
2021/10/02 00:57:02;;;;;;;12.85;5.43;;;;;;;13.50;85.48;101058.34;5100939;28;20051;-66
2021/10/02 00:59:31;;;;;;;11.25;5.10;;;;;;;13.54;85.69;101049.03;5093521;28;20076;-66
2021/10/02 01:02:06;;;;;;;18.08;6.18;;;;;;;13.59;85.04;101055.53;5107540;28;20162;-66
2021/10/02 01:08:04;;;;;;;12.30;5.18;;;;;;;13.56;85.15;101047.84;5115683;27;20383;-66
2021/10/02 01:10:43;;;;;;;12.75;5.50;;;;;;;13.54;85.67;101044.53;5118994;28;20443;-64
2021/10/02 01:13:33;;;;;;;17.23;5.50;;;;;;;13.52;85.47;101035.03;5121191;28;20040;-66
2021/10/02 01:16:10;;;;;;;14.50;5.70;;;;;;;13.49;86.45;101030.03;5094926;28;20134;-66
2021/10/02 01:18:49;;;;;;;16.63;6.00;;;;;;;13.50;85.96;101031.69;5108116;28;20401;-66
2021/10/02 01:21:56;;;;;;;13.07;5.15;;;;;;;13.46;85.85;101025.03;5095452;28;20036;-66
2021/10/02 01:25:02;;;;;;;13.75;6.05;;;;;;;13.48;85.82;101023.03;5109876;28;20043;-66
2021/10/02 01:28:10;;;;;;;16.45;5.80;;;;;;;13.49;86.56;101022.84;5109478;28;20123;-66
2021/10/02 01:31:20;;;;;;;11.70;5.40;;;;;;;13.54;85.67;101014.38;5109580;28;20503;-66
2021/10/02 01:33:47;;;;;;;15.98;5.50;;;;;;;13.52;85.68;101009.22;5108145;28;20048;-66
2021/10/02 01:37:08;;;;;;;13.35;5.22;;;;;;;13.56;85.86;101010.53;5099127;28;20032;-66
2021/10/02 01:47:52;;;;;;;13.00;5.10;;;;;;;13.55;86.03;101006.22;5106294;28;20051;-66
2021/10/02 01:50:21;;;;;;;13.20;5.30;;;;;;;13.52;86.40;101005.72;5094524;28;20578;-66
2021/10/02 01:52:50;;;;;;;13.35;5.00;;;;;;;13.42;86.04;101003.19;5123069;27;20051;-66
2021/10/02 01:55:19;;;;;;;12.68;4.93;;;;;;;13.48;85.90;101007.88;5090156;28;20050;-66
2021/10/02 01:57:51;;;;;;;11.13;5.10;;;;;;;13.54;85.63;101004.53;5109430;28;20061;-66
2021/10/02 02:00:18;;;;;;;15.18;4.57;;;;;;;13.55;86.06;101003.56;5097989;28;20441;-66
2021/10/02 02:02:52;;;;;;;13.27;4.65;;;;;;;13.53;86.98;101004.69;5098409;28;20051;-66
2021/10/02 02:05:23;;;;;;;11.07;4.40;;;;;;;13.51;86.54;101006.72;5095807;27;20040;-66
2021/10/02 02:07:53;;;;;;;9.97;4.07;;;;;;;13.55;86.92;101002.69;5103152;28;20043;-66
2021/10/02 02:10:24;;;;;;;12.13;4.32;;;;;;;13.58;85.63;100999.72;5101222;28;20289;-66
2021/10/02 02:12:53;;;;;;;9.30;3.78;;;;;;;13.61;85.60;101010.03;5107418;28;20093;-66
2021/10/02 02:15:21;;;;;;;8.55;3.80;;;;;;;13.60;86.10;101011.03;5109169;28;20408;-66
2021/10/02 02:18:01;;;;;;;9.95;4.25;;;;;;;13.61;86.57;101007.38;5100299;28;20052;-66
2021/10/02 02:20:32;;;;;;;8.15;3.60;;;;;;;13.61;86.37;100999.38;5090316;28;20071;-66
2021/10/02 02:23:00;;;;;;;7.25;2.28;;;;;;;13.61;84.33;101000.22;5080109;28;20079;-65
2021/10/02 02:25:28;;;;;;;6.00;2.53;;;;;;;13.67;84.54;100998.69;5089631;28;20044;-65
2021/10/02 02:27:56;;;;;;;4.20;1.88;;;;;;;13.61;83.85;100989.53;5085614;28;20043;-65
2021/10/02 02:30:23;;;;;;;6.47;1.70;;;;;;;13.70;83.66;101002.84;5082738;28;20438;-65
2021/10/02 02:32:51;;;;;;;4.82;1.73;;;;;;;13.58;83.83;100994.38;5095101;28;20044;-65
2021/10/02 02:35:20;;;;;;;7.35;1.80;;;;;;;13.53;85.30;100991.38;5091423;28;20493;-65
2021/10/02 02:37:47;;;;;;;5.45;1.80;;;;;;;13.58;83.86;100997.03;5086371;28;20128;-65
2021/10/02 02:40:14;;;;;;;4.47;1.88;;;;;;;13.55;84.73;100986.72;5091544;28;20078;-65
2021/10/02 02:42:41;;;;;;;4.38;1.80;;;;;;;13.58;85.36;100989.03;5079903;28;20047;-65
2021/10/02 02:45:11;;;;;;;5.55;2.00;;;;;;;13.56;85.95;100983.88;5091516;28;20086;-65
2021/10/02 02:48:01;;;;;;;4.95;1.80;;;;;;;13.58;85.85;100984.53;5092041;28;20076;-65
2021/10/02 02:50:52;;;;;;;3.85;1.73;;;;;;;13.66;83.44;100988.19;5088106;28;20068;-65
2021/10/02 02:53:45;;;;;;;3.45;1.60;;;;;;;13.68;82.59;100997.72;5091214;28;20123;-65
2021/10/02 02:56:19;;;;;;;3.78;1.60;;;;;;;13.61;83.95;100988.72;5089344;28;20047;-66
2021/10/02 02:58:53;;;;;;;4.50;1.63;;;;;;;13.63;84.96;100986.72;5091207;28;20131;-65
2021/10/02 03:01:21;;;;;;;4.00;1.70;;;;;;;13.61;84.97;100994.06;5090810;28;20043;-65
2021/10/02 03:03:52;;;;;;;5.18;1.80;;;;;;;13.60;85.28;100997.72;5087660;28;20045;-65
2021/10/02 03:06:22;;;;;;;3.40;1.70;;;;;;;13.58;82.78;100987.22;5082831;28;20048;-65
2021/10/02 03:08:54;;;;;;;4.28;1.60;;;;;;;13.59;84.06;100996.06;5072620;28;20044;-65
2021/10/02 03:11:24;;;;;;;5.50;1.80;;;;;;;13.56;84.39;100999.88;5073048;28;20119;-65
2021/10/02 03:13:56;;;;;;;6.38;1.67;;;;;;;13.67;83.37;100996.03;5073112;28;20040;-65
2021/10/02 03:16:25;;;;;;;4.22;1.70;;;;;;;13.73;82.19;100994.53;5082219;28;20032;-66
2021/10/02 03:18:58;;;;;;;5.85;1.90;;;;;;;13.66;82.38;100989.06;5094338;28;20040;-66
2021/10/02 03:21:25;;;;;;;4.68;1.70;;;;;;;13.62;84.21;100982.38;5092910;28;20514;-66
2021/10/02 03:23:53;;;;;;;4.07;1.67;;;;;;;13.60;85.01;100981.72;5111488;28;20044;-66
2021/10/02 03:26:21;;;;;;;5.30;1.75;;;;;;;13.59;84.67;100975.56;5098800;28;20143;-66
2021/10/02 03:28:49;;;;;;;4.85;1.70;;;;;;;13.56;83.73;100972.41;5082824;28;20065;-66
2021/10/02 03:31:17;;;;;;;4.28;1.88;;;;;;;13.66;84.50;100980.22;5071051;28;20478;-66
2021/10/02 03:33:46;;;;;;;5.72;1.92;;;;;;;13.63;84.52;100970.72;5074322;28;20508;-66
2021/10/02 03:36:14;;;;;;;5.25;2.35;;;;;;;13.62;84.20;100966.38;5093376;28;20046;-66
2021/10/02 03:38:41;;;;;;;5.38;2.45;;;;;;;13.67;84.32;100969.38;5092450;28;20048;-66
2021/10/02 03:41:09;;;;;;;4.70;2.25;;;;;;;13.65;84.48;100974.06;5093854;28;20050;-66
2021/10/02 03:43:37;;;;;;;5.57;2.70;;;;;;;13.82;81.51;100966.84;5093839;28;20496;-66
2021/10/02 03:46:04;;;;;;;5.75;2.55;;;;;;;13.66;83.16;100957.06;5093799;28;20050;-65
2021/10/02 03:48:31;;;;;;;6.45;2.78;;;;;;;13.61;83.33;100952.22;5087300;28;20040;-65
2021/10/02 03:50:58;;;;;;;6.65;2.70;;;;;;;13.64;83.48;100945.72;5084767;28;20123;-65
2021/10/02 03:53:27;;;;;;;11.48;3.42;;;;;;;13.66;83.47;100951.75;5092178;28;20036;-65
2021/10/02 03:55:55;;;;;;;9.23;3.13;;;;;;;13.69;82.56;100946.03;5092845;28;20373;-66
2021/10/02 03:58:23;;;;;;;7.80;3.15;;;;;;;13.73;82.42;100947.38;5093698;28;20036;-65
2021/10/02 04:00:50;;;;;;;7.68;2.90;;;;;;;13.62;82.68;100951.25;5092344;28;20040;-66
2021/10/02 04:03:17;;;;;;;7.20;2.78;;;;;;;13.70;81.61;100953.06;5071968;28;20048;-66
2021/10/02 04:05:44;;;;;;;6.40;2.92;;;;;;;13.68;83.06;100954.22;5081685;28;20087;-66
2021/10/02 04:08:10;;;;;;;9.88;3.28;;;;;;;13.62;84.10;100959.25;5090646;28;20048;-66
2021/10/02 04:10:37;;;;;;;6.80;2.33;;;;;;;13.65;84.39;100957.22;5072821;28;20044;-65
2021/10/02 04:13:06;;;;;;;6.53;2.30;;;;;;;13.68;82.87;100955.06;5071970;28;20146;-66
2021/10/02 04:15:34;;;;;;;5.90;2.28;;;;;;;13.70;84.18;100958.38;5085399;28;20040;-66
2021/10/02 04:18:02;;;;;;;6.57;2.15;;;;;;;13.71;82.22;100965.38;5093037;28;20037;-66
2021/10/02 04:20:29;;;;;;;7.03;2.35;;;;;;;13.66;83.88;100966.88;5091773;28;20040;-66
2021/10/02 04:22:55;;;;;;;9.50;2.40;;;;;;;13.65;84.47;100960.72;5090605;28;20040;-66
2021/10/02 04:25:22;;;;;;;7.90;2.78;;;;;;;13.70;84.70;100965.53;5088619;28;20040;-66
2021/10/02 04:27:49;;;;;;;8.95;2.88;;;;;;;13.71;84.74;100960.03;5093092;28;20419;-65
2021/10/02 04:30:16;;;;;;;6.32;2.80;;;;;;;13.73;84.59;100962.53;5092851;28;20040;-66
2021/10/02 04:32:42;;;;;;;9.95;3.15;;;;;;;13.73;84.73;100970.53;5092604;28;20048;-65
2021/10/02 04:35:09;;;;;;;9.23;3.10;;;;;;;13.73;84.77;100965.19;5091074;28;20040;-65
2021/10/02 04:37:36;;;;;;;9.50;3.00;;;;;;;13.73;85.42;100965.19;5092746;28;20040;-66
2021/10/02 04:40:04;;;;;;;9.85;3.55;;;;;;;13.75;85.51;100964.06;5084797;28;20489;-66
2021/10/02 04:42:30;;;;;;;9.73;3.42;;;;;;;13.75;84.40;100960.53;5083462;28;20097;-65
2021/10/02 04:44:57;;;;;;;8.10;3.47;;;;;;;13.73;84.81;100960.69;5092709;28;20044;-66
2021/10/02 04:47:26;;;;;;;10.02;3.42;;;;;;;13.77;84.64;100961.19;5091086;28;20036;-65
2021/10/02 04:49:53;;;;;;;10.23;3.60;;;;;;;13.72;84.05;100964.38;5092335;28;20042;-66
2021/10/02 04:52:20;;;;;;;13.57;4.15;;;;;;;13.71;83.92;100972.53;5092293;28;20040;-65
2021/10/02 04:54:47;;;;;;;9.40;3.63;;;;;;;13.71;83.43;100960.03;5090765;28;20421;-65
2021/10/02 04:57:13;;;;;;;10.00;3.58;;;;;;;13.67;84.25;100958.72;5091161;28;20047;-66
2021/10/02 04:59:40;;;;;;;10.40;3.58;;;;;;;13.72;82.61;100967.03;5092841;28;20040;-66
2021/10/02 05:02:07;;;;;;;10.43;3.35;;;;;;;13.69;82.91;100967.38;5075221;28;20035;-66
2021/10/02 05:04:34;;;;;;;8.80;2.75;;;;;;;13.77;82.71;100963.84;5089392;28;20048;-65
2021/10/02 05:07:01;;;;;;;10.68;3.00;;;;;;;13.72;83.67;100959.03;5086018;28;20101;-65
2021/10/02 05:09:27;;;;;;;9.23;3.22;;;;;;;13.71;84.20;100964.53;5091084;28;20041;-65
2021/10/02 05:11:54;;;;;;;9.23;3.25;;;;;;;13.73;83.91;100951.88;5082028;28;20058;-65
2021/10/02 05:14:21;;;;;;;9.95;3.50;;;;;;;13.67;84.22;100948.06;5083150;28;20036;-65
2021/10/02 05:16:49;;;;;;;9.40;3.63;;;;;;;13.64;84.80;100945.72;5078122;28;20033;-65
2021/10/02 05:19:15;;;;;;;11.55;4.40;;;;;;;13.60;84.51;100945.22;5090920;28;20077;-65
2021/10/02 05:21:42;;;;;;;11.38;4.20;;;;;;;13.60;83.44;100955.06;5085647;28;20544;-65
2021/10/02 05:24:09;;;;;;;9.50;4.28;;;;;;;13.59;84.45;100950.75;5101028;28;20399;-66
2021/10/02 05:26:36;;;;;;;8.63;3.70;;;;;;;13.54;85.06;100947.75;5080838;28;20063;-66
2021/10/02 05:29:03;;;;;;;8.73;3.45;;;;;;;13.52;84.79;100944.41;5092119;28;20044;-65
2021/10/02 05:31:30;;;;;;;8.45;3.15;;;;;;;13.52;84.60;100937.25;5090248;28;20048;-65
2021/10/02 05:33:56;;;;;;;7.55;2.83;;;;;;;13.50;84.95;100933.94;5092234;28;20036;-65
2021/10/02 05:36:23;;;;;;;10.32;2.80;;;;;;;13.51;85.13;100940.09;5092186;28;20048;-65
2021/10/02 05:38:50;;;;;;;8.30;3.58;;;;;;;13.49;84.97;100940.25;5091488;28;20118;-65
2021/10/02 05:41:16;;;;;;;8.70;3.10;;;;;;;13.41;85.05;100943.75;5070986;28;20098;-65
2021/10/02 05:43:43;;;;;;;6.70;2.70;;;;;;;13.39;85.22;100944.94;5091995;28;20040;-65
2021/10/02 05:46:10;;;;;;;10.32;2.70;;;;;;;13.34;85.30;100947.25;5092059;28;20035;-65
2021/10/02 05:48:37;;;;;;;7.88;2.63;;;;;;;13.30;85.48;100959.19;5092215;28;20041;-65
2021/10/02 05:51:04;;;;;;;7.45;3.05;;;;;;;13.34;86.01;100963.25;5090622;28;20061;-66
2021/10/02 05:53:31;;;;;;;7.50;2.83;;;;;;;13.34;86.13;100961.41;5094097;28;20043;-65
2021/10/02 05:55:58;;;;;;;11.10;3.13;;;;;;;13.40;85.82;100963.41;5095746;28;20425;-65
2021/10/02 05:58:24;;;;;;;8.98;2.85;;;;;;;13.40;85.96;100963.41;5095671;28;20063;-65
2021/10/02 06:00:51;;;;;;;11.00;2.90;;;;;;;13.39;85.83;100976.91;5095419;28;20044;-65
2021/10/02 06:03:18;;;;;;;10.45;3.10;;;;;;;13.36;84.90;100962.06;5094543;28;20054;-65
2021/10/02 06:05:45;;;;;;;8.10;3.35;;;;;;;13.40;84.67;100967.91;5092172;28;20515;-65
2021/10/02 06:08:12;;;;;;;13.52;3.78;;;;;;;13.41;85.09;100969.56;5093451;28;20040;-66
2021/10/02 06:10:38;;;;;;;10.60;3.90;;;;;;;13.42;85.54;100966.75;5079601;28;20045;-65
2021/10/02 06:13:05;;;;;;;13.48;4.05;;;;;;;13.41;85.72;100973.06;5073729;28;20048;-65
2021/10/02 06:15:32;;;;;;;10.00;3.55;;;;;;;13.38;85.63;100970.72;5091121;28;20488;-65
2021/10/02 06:17:59;;;;;;;10.30;3.80;;;;;;;13.44;85.44;100971.88;5081980;28;20033;-65
2021/10/02 06:20:26;;;;;;;8.88;3.60;;;;;;;13.44;85.18;100963.88;5089839;28;20040;-66
2021/10/02 06:22:53;;;;;;;9.82;3.70;;;;;;;13.51;85.00;100966.72;5085076;28;20042;-66
2021/10/02 06:25:20;;;;;;;10.63;3.65;;;;;;;13.52;84.59;100971.91;5080950;28;20036;-66
2021/10/02 06:27:47;;;;;;;9.25;4.07;;;;;;;13.49;85.00;100972.22;5077285;28;20090;-64
2021/10/02 06:30:14;;;;;;;10.15;3.45;;;;;;;13.54;84.63;100963.75;5082728;28;20043;-64
2021/10/02 06:32:40;;;;;;;9.63;3.80;;;;;;;13.55;84.92;100970.72;5090920;28;20430;-65
2021/10/02 06:35:07;;;;;;;14.40;6.55;;;;;;;13.56;84.80;100973.22;5090542;28;20040;-64
2021/10/02 06:37:34;;;;;;;10.38;3.72;;;;;;;13.59;84.15;100966.75;5082901;28;20043;-64
2021/10/02 06:40:02;;;;;;;8.60;3.40;;;;;;;13.59;84.25;100969.41;5079673;28;20493;-65
2021/10/02 06:42:28;;;;;;;9.52;3.35;;;;;;;13.61;84.39;100968.22;5083652;28;20416;-65
2021/10/02 06:44:56;;;;;;;8.68;3.47;;;;;;;13.68;84.82;100959.53;5093628;28;20093;-65
2021/10/02 06:47:23;;;;;;;8.50;3.50;;;;;;;13.68;84.58;100964.88;5093241;28;20032;-65
2021/10/02 06:49:53;;;;;;;10.38;3.38;;;;;;;13.73;84.38;100963.34;5094766;28;20040;-65
2021/10/02 06:52:20;;;;;;;11.15;3.60;;;;;;;13.75;84.16;100964.06;5094720;28;20040;-65
2021/10/02 06:54:47;;;;;;;10.45;4.45;;;;;;;13.78;84.34;100970.88;5094838;28;20477;-65
2021/10/02 06:57:13;;;;;;;12.60;3.95;;;;;;;13.83;83.53;100976.53;5094598;28;20036;-65
2021/10/02 06:59:40;;;;;;;13.63;4.10;;;;;;;13.90;84.18;100974.84;5094530;28;20090;-65
2021/10/02 07:02:08;;;;;;;11.70;3.78;;;;;;;13.89;84.59;100969.69;5094598;28;20503;-65
2021/10/02 07:04:35;;;;;;;17.95;3.78;;;;;;;13.94;83.66;100962.81;5071093;28;20047;-65
2021/10/02 07:07:02;;;;;;;15.90;4.05;;;;;;;13.96;84.06;100960.81;5073847;28;20084;-65
2021/10/02 07:09:28;;;;;;;11.32;4.30;;;;;;;13.98;83.65;100961.47;5074076;28;20504;-65
2021/10/02 07:11:57;;;;;;;10.85;4.20;;;;;;;14.07;83.71;100966.81;5092092;28;20036;-65
2021/10/02 07:14:24;;;;;;;10.88;4.30;;;;;;;14.11;83.98;100965.44;5094371;28;20105;-65
2021/10/02 07:16:52;;;;;;;11.63;4.47;;;;;;;14.12;83.46;100973.28;5093438;28;20036;-65
2021/10/02 07:19:19;;;;;;;10.48;4.50;;;;;;;14.20;83.18;100969.75;5094469;28;20048;-65
2021/10/02 07:21:46;;;;;;;11.70;4.68;;;;;;;14.18;81.53;100972.59;5094700;28;20044;-65
2021/10/02 07:24:14;;;;;;;13.85;5.40;;;;;;;14.24;81.20;100976.41;5082319;28;20439;-65
2021/10/02 07:26:41;;;;;;;14.60;5.22;;;;;;;14.24;82.52;100981.72;5114682;28;20126;-65
2021/10/02 07:29:08;;;;;;;21.75;11.20;;;;;;;14.23;81.63;100979.25;5105786;28;20090;-65
2021/10/02 07:31:34;;;;;;;10.40;4.55;;;;;;;14.22;81.07;100975.75;5082941;28;20045;-65
2021/10/02 07:34:02;;;;;;;10.32;4.03;;;;;;;14.39;80.13;100974.69;5074903;28;20138;-65
2021/10/02 07:36:29;;;;;;;10.65;4.13;;;;;;;14.33;81.99;100982.53;5079835;28;20090;-65
2021/10/02 07:38:56;;;;;;;6.80;2.95;;;;;;;14.32;81.54;100970.22;5093498;28;20028;-65
2021/10/02 07:41:24;;;;;;;7.18;3.03;;;;;;;14.36;80.40;100967.00;5087113;28;20036;-65
2021/10/02 07:43:56;;;;;;;8.15;3.10;;;;;;;14.33;81.19;100970.03;5093663;28;20097;-65
2021/10/02 07:46:25;;;;;;;10.13;3.20;;;;;;;14.37;80.43;100946.50;5093509;28;20047;-65
2021/10/02 07:48:53;;;;;;;7.38;3.03;;;;;;;14.30;82.08;100949.03;5072061;28;20036;-65
2021/10/02 07:51:23;;;;;;;5.88;2.40;;;;;;;14.35;81.00;100946.69;5089564;28;20400;-65
2021/10/02 07:53:52;;;;;;;7.93;2.85;;;;;;;14.43;80.48;100939.66;5072198;28;20040;-65
2021/10/02 07:56:20;;;;;;;6.75;3.00;;;;;;;14.41;80.50;100934.47;5087284;28;20499;-65
2021/10/02 07:58:48;;;;;;;9.20;2.72;;;;;;;14.45;80.70;100935.78;5075030;28;20043;-65
2021/10/02 08:01:16;;;;;;;6.97;2.58;;;;;;;14.48;78.77;100931.94;5093295;28;20439;-65
2021/10/02 08:03:42;;;;;;;9.93;3.53;;;;;;;14.54;78.86;100932.06;5091411;28;20052;-65
2021/10/02 08:06:10;;;;;;;9.55;3.42;;;;;;;14.56;79.88;100929.22;5092745;28;20062;-65
2021/10/02 08:08:36;;;;;;;8.82;3.92;;;;;;;14.62;80.83;100927.72;5091239;28;20497;-65
2021/10/02 08:11:06;;;;;;;13.52;4.30;;;;;;;14.73;80.50;100925.47;5092870;28;20046;-65
2021/10/02 08:13:33;;;;;;;13.10;4.18;;;;;;;14.68;79.29;100917.19;5093072;28;20049;-65
2021/10/02 08:16:01;;;;;;;11.55;4.38;;;;;;;14.75;80.56;100912.78;5091321;28;20500;-65
2021/10/02 08:18:37;;;;;;;10.77;3.72;;;;;;;14.74;80.06;100908.44;5075941;28;20401;-66
2021/10/02 08:21:06;;;;;;;9.48;3.25;;;;;;;14.74;77.95;100903.09;5096767;28;20044;-66
2021/10/02 08:23:35;;;;;;;9.13;3.35;;;;;;;14.78;77.52;100901.75;5091113;28;20047;-66
2021/10/02 08:26:04;;;;;;;9.23;2.65;;;;;;;14.83;79.45;100895.88;5095532;28;20039;-66
2021/10/02 08:28:33;;;;;;;6.80;2.38;;;;;;;14.90;77.64;100896.00;5087523;28;20036;-66
2021/10/02 08:31:02;;;;;;;6.07;2.40;;;;;;;14.84;77.19;100889.50;5095880;28;20079;-66
2021/10/02 08:33:29;;;;;;;7.00;2.30;;;;;;;14.92;77.93;100889.47;5095573;28;20575;-66
2021/10/02 08:35:57;;;;;;;6.13;2.42;;;;;;;15.01;78.52;100895.56;5086906;28;20097;-66
2021/10/02 08:38:24;;;;;;;7.32;2.28;;;;;;;14.96;75.74;100887.25;5087391;28;20084;-66
2021/10/02 08:40:54;;;;;;;6.82;2.50;;;;;;;15.04;75.38;100889.03;5079422;28;20102;-66
2021/10/02 08:43:22;;;;;;;7.40;2.30;;;;;;;15.04;77.58;100883.69;5091241;28;20040;-66
2021/10/02 08:45:49;;;;;;;6.50;2.13;;;;;;;15.03;76.36;100887.38;5096751;28;20093;-66
2021/10/02 08:48:18;;;;;;;8.25;2.20;;;;;;;15.11;77.22;100874.75;5091882;28;20048;-66
2021/10/02 08:50:46;;;;;;;5.07;2.20;;;;;;;15.15;76.38;100883.25;5097892;28;20120;-66
2021/10/02 08:53:15;;;;;;;7.38;2.20;;;;;;;15.23;75.65;100883.19;5099414;28;20483;-66
2021/10/02 08:55:43;;;;;;;6.57;2.90;;;;;;;15.23;76.65;100880.53;5096650;28;20054;-66
2021/10/02 08:58:10;;;;;;;5.63;2.17;;;;;;;15.24;75.29;100876.00;5107920;28;20089;-66
2021/10/02 09:00:39;;;;;;;8.20;2.47;;;;;;;15.14;74.42;100873.59;5101624;28;20040;-66
2021/10/02 09:03:06;;;;;;;8.45;2.42;;;;;;;15.10;75.37;100870.44;5102366;28;20036;-66
2021/10/02 09:05:33;;;;;;;5.35;2.35;;;;;;;15.10;75.15;100862.44;5085414;28;20049;-66
2021/10/02 09:08:00;;;;;;;6.50;2.53;;;;;;;15.12;76.29;100856.91;5090177;28;20040;-66
2021/10/02 09:10:29;;;;;;;6.38;2.80;;;;;;;15.18;75.91;100855.34;5092348;28;20094;-66
2021/10/02 09:12:56;;;;;;;6.50;2.28;;;;;;;15.24;76.08;100858.13;5086815;28;20501;-66
2021/10/02 09:15:23;;;;;;;5.97;2.10;;;;;;;15.26;75.04;100845.44;5089386;28;20043;-66
2021/10/02 09:17:51;;;;;;;6.10;2.05;;;;;;;15.22;74.61;100833.41;5092853;28;20480;-66
2021/10/02 09:20:18;;;;;;;7.32;2.58;;;;;;;15.31;75.35;100828.81;5091033;28;20044;-66
2021/10/02 09:23:08;;;;;;;7.32;2.30;;;;;;;15.42;75.03;100832.91;5097851;28;20488;-66
2021/10/02 09:25:39;;;;;;;8.60;2.60;;;;;;;15.47;75.54;100828.66;5096946;28;20373;-66
2021/10/02 09:28:10;;;;;;;7.47;2.83;;;;;;;15.46;76.54;100832.34;5101615;28;20051;-66
2021/10/02 09:30:39;;;;;;;7.75;2.90;;;;;;;15.49;75.47;100815.09;5097727;28;20040;-67
2021/10/02 09:33:20;;;;;;;9.85;3.40;;;;;;;15.57;76.10;100816.84;5095428;28;20043;-66
2021/10/02 09:35:48;;;;;;;8.57;3.90;;;;;;;15.47;77.36;100812.63;5102512;28;20118;-66
2021/10/02 09:38:18;;;;;;;7.25;3.20;;;;;;;15.60;76.15;100801.28;5111753;28;20032;-66
2021/10/02 09:40:55;;;;;;;8.35;3.30;;;;;;;15.51;75.69;100795.19;5099216;28;20036;-66
2021/10/02 09:43:22;;;;;;;12.15;2.90;;;;;;;15.48;75.82;100811.63;5105473;28;20063;-66
2021/10/02 09:45:49;;;;;;;11.25;3.10;;;;;;;15.44;75.29;100810.28;5098392;28;20187;-66
2021/10/02 09:48:25;;;;;;;11.95;3.13;;;;;;;15.59;75.12;100804.97;5092487;28;20040;-66
2021/10/02 09:50:52;;;;;;;7.90;3.47;;;;;;;15.50;76.52;100796.22;5099390;28;20064;-66
2021/10/02 09:53:20;;;;;;;6.80;3.03;;;;;;;15.49;75.33;100810.59;5098139;28;20036;-66
2021/10/02 09:55:49;;;;;;;9.07;3.47;;;;;;;15.59;75.92;100804.13;5101196;28;20052;-66
2021/10/02 09:58:33;;;;;;;9.55;3.40;;;;;;;15.65;75.77;100804.22;5110757;28;20036;-66
2021/10/02 10:01:04;;;;;;;9.05;3.30;;;;;;;15.78;74.81;100800.91;5097460;28;20832;-66
2021/10/02 10:03:47;;;;;;;8.25;3.67;;;;;;;15.81;74.57;100803.22;5105326;28;20040;-66
2021/10/02 10:06:19;;;;;;;9.02;3.45;;;;;;;15.92;73.98;100800.06;5124643;27;20143;-66
2021/10/02 10:09:07;;;;;;;11.25;3.45;;;;;;;15.99;73.42;100796.63;5091972;28;20032;-66
2021/10/02 10:11:52;;;;;;;9.57;3.17;;;;;;;16.27;73.93;100794.88;5094277;28;20089;-66
2021/10/02 10:14:23;;;;;;;7.47;3.25;;;;;;;16.87;71.33;100791.97;5093526;28;20382;-66
2021/10/02 10:16:51;;;;;;;6.95;3.10;;;;;;;17.04;69.31;100795.16;5094653;28;20119;-66
2021/10/02 10:19:28;;;;;;;9.68;3.65;;;;;;;17.06;69.38;100785.06;5104954;28;20036;-66
2021/10/02 10:22:18;;;;;;;7.40;3.40;;;;;;;17.04;70.41;100779.09;5105359;28;20557;-66
2021/10/02 10:25:05;;;;;;;10.77;3.60;;;;;;;17.02;70.55;100781.97;5093647;28;20094;-67
2021/10/02 10:27:43;;;;;;;8.50;3.67;;;;;;;16.92;70.47;100765.41;5093557;28;20040;-66
2021/10/02 10:30:22;;;;;;;8.05;3.22;;;;;;;16.96;70.55;100758.63;5095266;28;20037;-66
2021/10/02 10:33:10;;;;;;;9.15;3.47;;;;;;;16.88;71.48;100754.25;5097376;28;20131;-66
2021/10/02 10:35:40;;;;;;;11.07;3.65;;;;;;;16.83;71.71;100742.47;5095008;28;20047;-66
2021/10/02 10:38:10;;;;;;;9.13;3.30;;;;;;;16.84;71.79;100744.94;5090692;28;20036;-66
2021/10/02 10:40:37;;;;;;;6.30;2.97;;;;;;;16.80;72.33;100732.94;5076460;28;20044;-66
2021/10/02 10:43:05;;;;;;;10.35;3.67;;;;;;;17.03;70.87;100734.56;5099702;28;20085;-65
2021/10/02 10:45:36;;;;;;;11.23;3.38;;;;;;;17.41;70.56;100718.88;5094924;28;20057;-65
2021/10/02 10:48:05;;;;;;;10.20;3.60;;;;;;;17.62;69.52;100711.75;5096667;28;20036;-65
2021/10/02 10:50:38;;;;;;;7.63;3.00;;;;;;;18.23;67.80;100719.75;5096125;28;20048;-65
2021/10/02 10:53:06;;;;;;;6.70;2.83;;;;;;;18.05;66.77;100708.78;5089513;28;20094;-65
2021/10/02 10:55:46;;;;;;;6.13;2.60;;;;;;;18.00;67.03;100719.31;5096671;28;20055;-65
2021/10/02 10:58:22;;;;;;;9.35;3.03;;;;;;;18.07;66.72;100697.84;5087777;28;20078;-65
2021/10/02 11:00:49;;;;;;;10.15;3.20;;;;;;;18.07;66.80;100704.03;5090728;28;20040;-65
2021/10/02 11:03:35;;;;;;;7.22;3.17;;;;;;;17.87;66.37;100687.91;5091892;28;20105;-65
2021/10/02 11:06:04;;;;;;;7.10;2.80;;;;;;;17.79;65.94;100688.06;5074300;28;20060;-65
2021/10/02 11:11:53;;;;;;;10.98;2.65;;;;;;;17.75;65.45;100682.25;5102573;27;20170;-64
2021/10/02 11:14:24;;;;;;;7.55;2.60;;;;;;;18.25;65.82;100681.97;5097332;28;20044;-64
2021/10/02 11:17:06;;;;;;;6.82;2.72;;;;;;;18.42;64.61;100679.69;5090350;28;20039;-65
2021/10/02 11:19:36;;;;;;;;;;;;;;;18.77;61.48;100674.91;5105050;28;20126;-64
2021/10/02 11:22:48;;;;;;;5.82;1.92;;;;;;;18.83;60.92;100667.91;5086079;28;20234;-66
2021/10/02 11:25:17;;;;;;;;;;;;;;;19.14;61.12;100664.50;5104362;28;20044;-65
2021/10/02 11:27:44;;;;;;;6.53;2.30;;;;;;;19.23;60.90;100646.25;5100916;28;19924;-66
2021/10/02 11:30:13;;;;;;;4.90;2.00;;;;;;;19.28;58.56;100648.28;5088113;28;20507;-66
2021/10/02 11:32:40;;;;;;;5.05;1.80;;;;;;;19.26;61.09;100651.19;5105122;28;20125;-65
2021/10/02 11:35:29;;;;;;;6.68;2.03;;;;;;;19.05;60.14;100651.50;5062748;28;20038;-65
2021/10/02 11:37:59;;;;;;;9.02;2.20;;;;;;;18.88;61.36;100651.97;5103617;28;20043;-65
2021/10/02 11:40:46;;;;;;;8.23;2.10;;;;;;;18.82;59.49;100641.22;5097608;28;20047;-66
2021/10/02 11:45:54;;;;;;;5.88;1.90;;;;;;;18.35;62.20;100634.03;5102887;27;20405;-64
2021/10/02 11:48:32;;;;;;;6.38;1.92;;;;;;;18.52;62.29;100629.06;5085268;28;20067;-65
2021/10/02 11:51:25;;;;;;;4.47;1.70;;;;;;;18.39;62.71;100616.50;5120304;27;20516;-65
2021/10/02 11:53:58;;;;;;;5.35;1.70;;;;;;;18.21;61.91;100614.44;5087705;28;20064;-65
2021/10/02 11:56:28;;;;;;;3.95;1.60;;;;;;;18.11;63.23;100605.16;5089578;28;20047;-65
2021/10/02 11:58:58;;;;;;;3.75;1.58;;;;;;;17.92;62.72;100596.91;5088380;28;20047;-65
2021/10/02 12:01:37;;;;;;;2.33;1.35;;;;;;;17.69;63.91;100591.06;5084215;28;20042;-65
2021/10/02 12:04:07;;;;;;;6.10;1.35;;;;;;;17.61;64.17;100581.38;5091432;28;20044;-65
2021/10/02 12:06:38;;;;;;;5.30;1.50;;;;;;;17.72;63.31;100572.69;5096203;28;20048;-65
2021/10/02 12:09:10;;;;;;;3.20;1.38;;;;;;;18.00;63.03;100563.66;5093078;28;20504;-65
2021/10/02 12:11:47;;;;;;;5.53;1.90;;;;;;;18.37;61.25;100556.81;5094439;28;20122;-65
2021/10/02 12:14:16;;;;;;;7.18;1.65;;;;;;;18.88;60.22;100551.69;5114485;27;20466;-65
2021/10/02 12:16:48;;;;;;;4.25;1.50;;;;;;;18.66;59.99;100560.00;5095676;28;20490;-66
2021/10/02 12:19:22;;;;;;;2.85;1.45;;;;;;;18.56;61.14;100552.41;5098117;28;20048;-65
2021/10/02 12:21:57;;;;;;;4.40;1.50;;;;;;;18.42;60.93;100554.28;5119843;27;20044;-65
2021/10/02 12:24:30;;;;;;;3.17;1.45;;;;;;;18.29;61.13;100553.50;5084718;28;20131;-65
2021/10/02 12:27:01;;;;;;;4.53;1.70;;;;;;;18.15;61.36;100558.06;5077652;28;20033;-65
2021/10/02 12:29:32;;;;;;;4.60;1.73;;;;;;;18.05;61.82;100552.31;5085099;28;20046;-65
2021/10/02 12:32:10;;;;;;;5.67;1.83;;;;;;;17.96;61.52;100549.81;5107546;27;20049;-65
2021/10/02 12:34:41;;;;;;;4.63;1.65;;;;;;;17.90;63.39;100537.25;5111423;28;20074;-65
2021/10/02 12:39:53;;;;;;;5.57;1.90;;;;;;;17.82;63.39;100526.69;5108881;27;20383;-65
2021/10/02 12:42:32;;;;;;;7.90;1.67;;;;;;;17.61;63.02;100519.69;5114045;28;20097;-65